Time;durP1;ratioP1;P1;durP2;ratioP2;P2;SDS_P1;SDS_P2;PMS_P1;PMS_P2;Temp;Humidity;BMP_temperature;BMP_pressure;BME280_temperature;BME280_humidity;BME280_pressure;Samples;Min_cycle;Max_cycle;Signal;HPM_P1;HPM_P2
2021/11/10 00:02:14;;;;;;;;;;;10.20;85.70;;;;;;4363993;32;20017;-86
2021/11/10 00:04:46;;;;;;;;;;;10.20;85.60;;;;;;4363477;32;19989;-87
2021/11/10 00:07:16;;;;;;;;;;;10.10;85.60;;;;;;4376054;32;33767;-86
2021/11/10 00:09:46;;;;;;;;;;;10.10;85.60;;;;;;4376396;32;20016;-86
2021/11/10 00:12:17;;;;;;;;;;;10.10;85.60;;;;;;4363383;32;38851;-86
2021/11/10 00:14:44;;;;;;;;;;;10.10;85.60;;;;;;4376881;32;37330;-85
2021/11/10 00:17:17;;;;;;;;;;;10.10;85.60;;;;;;4376794;32;20043;-85
2021/11/10 00:19:44;;;;;;;;;;;10.10;85.80;;;;;;4376855;32;20050;-85
2021/11/10 00:22:14;;;;;;;;;;;10.00;85.80;;;;;;4364257;32;20019;-86
2021/11/10 00:24:47;;;;;;;;;;;10.00;85.80;;;;;;4376308;32;20012;-83
2021/11/10 00:27:14;;;;;;;;;;;10.00;86.00;;;;;;4364227;32;20001;-85
2021/11/10 00:29:50;;;;;;;;;;;9.90;85.90;;;;;;4376182;32;20008;-86
2021/11/10 00:32:19;;;;;;;;;;;9.90;85.90;;;;;;4376511;32;20012;-86
2021/11/10 00:34:52;;;;;;;;;;;9.90;86.10;;;;;;4364169;32;19989;-86
2021/11/10 00:37:19;;;;;;;;;;;9.90;86.10;;;;;;4375775;32;36723;-86
2021/11/10 00:39:55;;;;;;;;;;;10.00;86.10;;;;;;4362988;32;39964;-86
2021/11/10 00:42:28;;;;;;;;;;;9.90;86.00;;;;;;4363678;32;19993;-86
2021/11/10 00:45:01;;;;;;;;;;;9.90;86.00;;;;;;4362873;32;35666;-87
2021/11/10 00:47:28;;;;;;;;;;;9.90;86.00;;;;;;4362768;32;32804;-86
2021/11/10 00:49:55;;;;;;;;;;;9.90;86.00;;;;;;4363476;32;20045;-86
2021/11/10 00:52:28;;;;;;;;;;;9.90;86.00;;;;;;4363511;32;20052;-86
2021/11/10 00:55:01;;;;;;;;;;;9.90;85.90;;;;;;4363738;32;20005;-86
2021/11/10 00:57:31;;;;;;;;;;;9.90;86.00;;;;;;4376538;32;30369;-86
2021/11/10 01:00:01;;;;;;;;;;;9.80;85.90;;;;;;4375229;32;23751;-86
2021/11/10 01:02:30;;;;;;;;;;;9.80;86.00;;;;;;4375771;32;20016;-86
2021/11/10 01:05:04;;;;;;;;;;;9.90;86.10;;;;;;4377111;32;20012;-86
2021/11/10 01:07:36;;;;;;;;;;;9.80;86.10;;;;;;4375738;32;20023;-85
2021/11/10 01:10:07;;;;;;;;;;;9.80;85.80;;;;;;4362605;32;31196;-86
2021/11/10 01:12:37;;;;;;;;;;;9.80;85.90;;;;;;4375184;32;30594;-86
2021/11/10 01:15:08;;;;;;;;;;;9.70;85.90;;;;;;4362374;32;27312;-86
2021/11/10 01:17:43;;;;;;;;;;;9.70;86.10;;;;;;4375848;32;20014;-85
2021/11/10 01:20:13;;;;;;;;;;;9.70;86.20;;;;;;4375486;32;20075;-86
2021/11/10 01:22:46;;;;;;;;;;;9.70;86.20;;;;;;4375251;32;20059;-86
2021/11/10 01:25:19;;;;;;;;;;;9.60;86.30;;;;;;4375975;32;20031;-86
2021/11/10 01:27:46;;;;;;;;;;;9.70;86.30;;;;;;4388312;32;20043;-85
2021/11/10 01:30:20;;;;;;;;;;;9.60;86.40;;;;;;4375247;32;20420;-86
2021/11/10 01:32:50;;;;;;;;;;;9.60;86.40;;;;;;4375143;32;23100;-85
2021/11/10 01:35:23;;;;;;;;;;;9.60;86.40;;;;;;4376809;32;20000;-85
2021/11/10 01:37:52;;;;;;;;;;;9.60;86.60;;;;;;4362261;32;30255;-85
2021/11/10 01:40:20;;;;;;;;;;;9.60;86.50;;;;;;4363254;32;20296;-85
2021/11/10 01:42:49;;;;;;;;;;;9.50;86.50;;;;;;4375588;32;20038;-84
2021/11/10 01:45:18;;;;;;;;;;;9.50;86.70;;;;;;4362851;32;20003;-85
2021/11/10 01:47:50;;;;;;;;;;;9.50;87.50;;;;;;4375796;32;20008;-85
2021/11/10 01:50:21;;;;;;;;;;;9.50;86.90;;;;;;4375797;32;37400;-85
2021/11/10 01:52:51;;;;;;;;;;;9.50;87.00;;;;;;4363108;32;20015;-85
2021/11/10 01:55:20;;;;;;;;;;;9.50;87.20;;;;;;4361971;32;39659;-85
2021/11/10 01:57:50;;;;;;;;;;;9.40;87.20;;;;;;4374557;32;32645;-86
2021/11/10 02:00:23;;;;;;;;;;;9.40;87.40;;;;;;4362591;32;19996;-85
2021/11/10 02:02:54;;;;;;;;;;;9.30;87.50;;;;;;4385107;32;20008;-85
2021/11/10 02:05:24;;;;;;;;;;;9.30;87.70;;;;;;4378094;32;20397;-85
2021/11/10 02:07:54;;;;;;;;;;;9.20;87.70;;;;;;4364188;32;31328;-85
2021/11/10 02:10:26;;;;;;;;;;;9.20;87.90;;;;;;4364238;32;28626;-86
2021/11/10 02:12:53;;;;;;;;;;;9.20;88.00;;;;;;4376825;32;41484;-86
2021/11/10 02:15:27;;;;;;;;;;;9.10;88.00;;;;;;4377817;32;20078;-86
2021/11/10 02:17:57;;;;;;;;;;;9.20;88.10;;;;;;4365617;32;20049;-86
2021/11/10 02:20:32;;;;;;;;;;;9.10;88.00;;;;;;4376996;32;21664;-86
2021/11/10 02:23:00;;;;;;;;;;;9.10;87.90;;;;;;4365261;32;20004;-86
2021/11/10 02:25:28;;;;;;;;;;;9.10;88.00;;;;;;4365297;32;20012;-86
2021/11/10 02:27:58;;;;;;;;;;;9.10;88.00;;;;;;4378983;32;20079;-86
2021/11/10 02:30:28;;;;;;;;;;;9.10;88.10;;;;;;4380889;32;20016;-86
2021/11/10 02:33:04;;;;;;;;;;;9.00;88.20;;;;;;4367235;32;37966;-86
2021/11/10 02:35:31;;;;;;;;;;;8.90;88.30;;;;;;4367151;32;36361;-86
2021/11/10 02:38:01;;;;;;;;;;;8.90;88.30;;;;;;4379889;32;39290;-86
2021/11/10 02:40:34;;;;;;;;;;;8.90;88.40;;;;;;4368292;32;19996;-86
2021/11/10 02:43:04;;;;;;;;;;;8.90;88.40;;;;;;4380288;32;20052;-86
2021/11/10 02:45:37;;;;;;;;;;;8.90;88.30;;;;;;4367813;32;20077;-86
2021/11/10 02:48:13;;;;;;;;;;;8.90;88.40;;;;;;4367278;32;34135;-85
2021/11/10 02:50:43;;;;;;;;;;;8.90;88.40;;;;;;4366848;32;42825;-86
2021/11/10 02:53:13;;;;;;;;;;;8.80;88.40;;;;;;4379694;32;34638;-86
2021/11/10 02:55:40;;;;;;;;;;;8.80;88.60;;;;;;4366660;32;46801;-86
2021/11/10 02:58:10;;;;;;;;;;;8.80;88.70;;;;;;4368137;32;20082;-85
2021/11/10 03:00:38;;;;;;;;;;;8.80;88.80;;;;;;4379742;32;27639;-85
2021/11/10 03:03:08;;;;;;;;;;;8.70;88.70;;;;;;4365314;32;20438;-86
2021/11/10 03:05:36;;;;;;;;;;;8.70;88.70;;;;;;4365201;32;20053;-86
2021/11/10 03:08:06;;;;;;;;;;;8.70;88.80;;;;;;4378801;32;20050;-85
2021/11/10 03:10:37;;;;;;;;;;;8.70;88.90;;;;;;4364863;32;19993;-85
2021/11/10 03:13:04;;;;;;;;;;;8.60;88.80;;;;;;4377222;32;20011;-85
2021/11/10 03:15:37;;;;;;;;;;;8.60;88.90;;;;;;4376522;32;37186;-85
2021/11/10 03:18:10;;;;;;;;;;;8.70;88.90;;;;;;4376539;32;36447;-86
2021/11/10 03:20:44;;;;;;;;;;;8.70;89.00;;;;;;4377063;32;25976;-86
2021/11/10 03:23:11;;;;;;;;;;;8.60;89.00;;;;;;4364018;32;34786;-87
2021/11/10 03:25:41;;;;;;;;;;;8.60;89.10;;;;;;4377861;32;25021;-86
2021/11/10 03:28:11;;;;;;;;;;;8.50;89.10;;;;;;4364119;32;29138;-86
2021/11/10 03:30:41;;;;;;;;;;;8.50;89.20;;;;;;4363555;32;38060;-87
2021/11/10 03:33:10;;;;;;;;;;;8.50;89.20;;;;;;4376343;32;34800;-86
2021/11/10 03:35:41;;;;;;;;;;;8.40;89.20;;;;;;4377362;32;20064;-86
2021/11/10 03:38:13;;;;;;;;;;;8.40;89.40;;;;;;4375764;32;35984;-86
2021/11/10 03:40:43;;;;;;;;;;;8.40;89.40;;;;;;4363600;32;38988;-86
2021/11/10 03:43:16;;;;;;;;;;;8.40;89.40;;;;;;4364492;32;20444;-86
2021/11/10 03:45:45;;;;;;;;;;;8.40;89.40;;;;;;4377396;32;38243;-87
2021/11/10 03:48:16;;;;;;;;;;;8.40;89.30;;;;;;4363957;32;30118;-86
2021/11/10 03:50:44;;;;;;;;;;;8.40;89.30;;;;;;4377228;32;20023;-86
2021/11/10 03:53:14;;;;;;;;;;;8.40;89.30;;;;;;4363369;32;39075;-86
2021/11/10 03:55:43;;;;;;;;;;;8.40;89.30;;;;;;4376860;32;29851;-86
2021/11/10 03:58:12;;;;;;;;;;;8.40;89.30;;;;;;4377304;32;34601;-87
2021/11/10 04:00:42;;;;;;;;;;;8.40;89.20;;;;;;4363912;32;21447;-87
2021/11/10 04:03:12;;;;;;;;;;;8.40;89.20;;;;;;4364355;32;20015;-87
2021/11/10 04:05:42;;;;;;;;;;;8.30;89.20;;;;;;4364238;32;19997;-86
2021/11/10 04:08:12;;;;;;;;;;;8.30;89.30;;;;;;4363451;32;30827;-86
2021/11/10 04:10:45;;;;;;;;;;;8.30;89.30;;;;;;4376408;32;22606;-86
2021/11/10 04:13:15;;;;;;;;;;;8.40;89.20;;;;;;4376204;32;27867;-87
2021/11/10 04:15:45;;;;;;;;;;;8.30;89.00;;;;;;4363789;32;20005;-87
2021/11/10 04:18:18;;;;;;;;;;;8.40;89.00;;;;;;4363448;32;19993;-87
2021/11/10 04:20:50;;;;;;;;;;;8.40;88.90;;;;;;4364469;32;20007;-86
2021/11/10 04:23:20;;;;;;;;;;;8.40;88.80;;;;;;4363118;32;45040;-86
2021/11/10 04:25:51;;;;;;;;;;;8.40;88.70;;;;;;4375650;32;34043;-86
2021/11/10 04:28:20;;;;;;;;;;;8.40;88.70;;;;;;4377093;32;20368;-86
2021/11/10 04:30:53;;;;;;;;;;;8.40;88.70;;;;;;4375410;32;25541;-86
2021/11/10 04:33:26;;;;;;;;;;;8.40;88.50;;;;;;4375544;32;33680;-86
2021/11/10 04:35:56;;;;;;;;;;;8.40;88.40;;;;;;4375577;32;27485;-86
2021/11/10 04:38:23;;;;;;;;;;;8.50;88.40;;;;;;4362871;32;41469;-86
2021/11/10 04:40:53;;;;;;;;;;;8.40;88.20;;;;;;4362749;32;30655;-86
2021/11/10 04:43:26;;;;;;;;;;;8.40;88.00;;;;;;4375287;32;40309;-85
2021/11/10 04:48:38;;;;;;;;;;;8.50;88.00;;;;;;4376137;32;20001;-87
2021/11/10 04:51:13;;;;;;;;;;;8.40;88.10;;;;;;4375411;32;19989;-86
2021/11/10 04:53:47;;;;;;;;;;;8.40;88.10;;;;;;4363678;32;20447;-87
2021/11/10 04:56:15;;;;;;;;;;;8.40;88.10;;;;;;4375622;32;28916;-86
2021/11/10 04:58:48;;;;;;;;;;;8.30;88.20;;;;;;4363536;32;20003;-86
2021/11/10 05:01:18;;;;;;;;;;;8.30;88.30;;;;;;4375174;32;37838;-86
2021/11/10 05:03:48;;;;;;;;;;;8.30;88.30;;;;;;4363261;32;20009;-86
2021/11/10 05:06:17;;;;;;;;;;;8.30;88.40;;;;;;4377321;32;20011;-86
2021/11/10 05:08:45;;;;;;;;;;;8.30;88.30;;;;;;4363155;32;20052;-86
2021/11/10 05:11:14;;;;;;;;;;;8.30;88.20;;;;;;4375725;32;20109;-86
2021/11/10 05:13:45;;;;;;;;;;;8.30;88.10;;;;;;4375063;32;38483;-86
2021/11/10 05:16:15;;;;;;;;;;;8.30;88.00;;;;;;4363575;32;20534;-86
2021/11/10 05:18:48;;;;;;;;;;;8.30;87.90;;;;;;4363092;32;20030;-87
2021/11/10 05:21:28;;;;;;;;;;;8.30;87.90;;;;;;4362822;32;31934;-86
2021/11/10 05:23:55;;;;;;;;;;;8.30;87.90;;;;;;4362537;32;33791;-87
2021/11/10 05:26:28;;;;;;;;;;;8.30;87.80;;;;;;4375016;32;30393;-86
2021/11/10 05:29:01;;;;;;;;;;;8.30;87.90;;;;;;4374843;32;35853;-86
2021/11/10 05:31:31;;;;;;;;;;;8.30;88.00;;;;;;4374914;32;32478;-86
2021/11/10 05:34:04;;;;;;;;;;;8.30;88.00;;;;;;4375513;32;37870;-86
2021/11/10 05:36:37;;;;;;;;;;;8.20;87.90;;;;;;4374434;32;40758;-86
2021/11/10 05:39:07;;;;;;;;;;;8.20;87.90;;;;;;4375434;32;20041;-86
2021/11/10 05:41:36;;;;;;;;;;;8.20;87.90;;;;;;4373974;32;38817;-86
2021/11/10 05:44:06;;;;;;;;;;;8.20;87.90;;;;;;4375572;32;20001;-86
2021/11/10 05:46:36;;;;;;;;;;;8.20;87.80;;;;;;4374997;32;20008;-86
2021/11/10 05:49:15;;;;;;;;;;;8.20;87.80;;;;;;4363006;32;20004;-86
2021/11/10 05:51:45;;;;;;;;;;;8.20;87.80;;;;;;4374129;32;46742;-85
2021/11/10 05:54:15;;;;;;;;;;;8.20;87.80;;;;;;4374473;32;38049;-85
2021/11/10 05:56:47;;;;;;;;;;;8.10;87.80;;;;;;4363006;32;20034;-85
2021/11/10 05:59:16;;;;;;;;;;;8.10;88.00;;;;;;4375544;32;20015;-85
2021/11/10 06:01:49;;;;;;;;;;;8.10;88.00;;;;;;4377195;32;32430;-86
2021/11/10 06:04:19;;;;;;;;;;;8.10;88.10;;;;;;4364926;32;19999;-86
2021/11/10 06:06:48;;;;;;;;;;;8.10;88.00;;;;;;4377427;32;20399;-86
2021/11/10 06:09:19;;;;;;;;;;;8.10;88.00;;;;;;4365074;32;20046;-86
2021/11/10 06:11:49;;;;;;;;;;;8.10;88.00;;;;;;4376188;32;44581;-86
2021/11/10 06:14:18;;;;;;;;;;;8.10;87.90;;;;;;4376660;32;39481;-86
2021/11/10 06:16:51;;;;;;;;;;;8.10;87.80;;;;;;4364807;32;20011;-86
2021/11/10 06:19:18;;;;;;;;;;;8.10;87.80;;;;;;4377778;32;20019;-85
2021/11/10 06:21:46;;;;;;;;;;;8.10;87.80;;;;;;4365008;32;20400;-85
2021/11/10 06:24:20;;;;;;;;;;;8.10;87.80;;;;;;4377696;32;20013;-85
2021/11/10 06:26:48;;;;;;;;;;;8.10;87.80;;;;;;4363885;32;34312;-86
2021/11/10 06:29:20;;;;;;;;;;;8.10;87.80;;;;;;4377069;32;42401;-86
2021/11/10 06:31:47;;;;;;;;;;;8.00;87.70;;;;;;4376879;32;20080;-85
2021/11/10 06:34:17;;;;;;;;;;;8.00;87.90;;;;;;4377510;32;20035;-86
2021/11/10 06:36:47;;;;;;;;;;;8.00;88.00;;;;;;4377833;32;20016;-85
2021/11/10 06:39:17;;;;;;;;;;;8.00;88.00;;;;;;4376483;32;40143;-85
2021/11/10 06:41:47;;;;;;;;;;;8.00;88.10;;;;;;4363673;32;39394;-86
2021/11/10 06:44:17;;;;;;;;;;;8.00;88.00;;;;;;4364805;32;20010;-85
2021/11/10 06:46:50;;;;;;;;;;;8.00;88.00;;;;;;4364297;32;39432;-86
2021/11/10 06:49:20;;;;;;;;;;;8.00;87.90;;;;;;4389952;32;35964;-86
2021/11/10 06:51:52;;;;;;;;;;;8.00;88.00;;;;;;4363935;32;28539;-85
2021/11/10 06:54:22;;;;;;;;;;;7.90;87.90;;;;;;4376366;32;42683;-86
2021/11/10 06:56:50;;;;;;;;;;;8.00;88.00;;;;;;4363795;32;29024;-86
2021/11/10 06:59:17;;;;;;;;;;;7.90;88.00;;;;;;4390207;32;34114;-86
2021/11/10 07:01:47;;;;;;;;;;;7.90;88.00;;;;;;4377012;32;20012;-85
2021/11/10 07:04:18;;;;;;;;;;;7.90;88.00;;;;;;4363750;32;38286;-85
2021/11/10 07:06:51;;;;;;;;;;;7.90;88.10;;;;;;4377347;32;20008;-85
2021/11/10 07:09:21;;;;;;;;;;;7.90;88.00;;;;;;4376691;32;31516;-85
2021/11/10 07:11:53;;;;;;;;;;;7.90;88.00;;;;;;4364398;32;20004;-85
2021/11/10 07:14:26;;;;;;;;;;;7.90;88.10;;;;;;4379589;32;20012;-85
2021/11/10 07:17:02;;;;;;;;;;;7.90;88.10;;;;;;4379304;32;38400;-85
2021/11/10 07:19:31;;;;;;;;;;;7.90;88.00;;;;;;4367594;32;20338;-85
2021/11/10 07:22:02;;;;;;;;;;;7.80;88.00;;;;;;4378595;32;38273;-85
2021/11/10 07:24:32;;;;;;;;;;;7.80;88.10;;;;;;4378549;32;34430;-85
2021/11/10 07:27:05;;;;;;;;;;;7.80;88.10;;;;;;4379693;32;19996;-85
2021/11/10 07:29:32;;;;;;;;;;;7.80;88.30;;;;;;4366047;32;42533;-85
2021/11/10 07:32:03;;;;;;;;;;;7.80;88.30;;;;;;4393688;32;20036;-85
2021/11/10 07:34:36;;;;;;;;;;;7.80;88.30;;;;;;4367407;32;20008;-85
2021/11/10 07:37:08;;;;;;;;;;;7.80;88.40;;;;;;4379216;32;30891;-85
2021/11/10 07:39:41;;;;;;;;;;;7.80;88.50;;;;;;4367343;32;20010;-85
2021/11/10 07:42:14;;;;;;;;;;;7.70;88.50;;;;;;4379926;32;20012;-85
2021/11/10 07:44:45;;;;;;;;;;;7.80;88.50;;;;;;4366573;32;22446;-85
2021/11/10 07:47:18;;;;;;;;;;;7.80;88.50;;;;;;4367026;32;20384;-85
2021/11/10 07:49:52;;;;;;;;;;;7.80;88.50;;;;;;4378553;32;35171;-86
2021/11/10 07:52:19;;;;;;;;;;;7.80;88.60;;;;;;4366117;32;37810;-85
2021/11/10 07:54:52;;;;;;;;;;;7.80;88.70;;;;;;4380487;32;20012;-86
2021/11/10 07:57:25;;;;;;;;;;;7.70;88.70;;;;;;4367196;32;20012;-85
2021/11/10 07:59:54;;;;;;;;;;;7.70;88.80;;;;;;4379390;32;20447;-85
2021/11/10 08:02:22;;;;;;;;;;;7.70;88.90;;;;;;4365846;32;34949;-84
2021/11/10 08:04:55;;;;;;;;;;;7.70;89.00;;;;;;4366909;32;20405;-84
2021/11/10 08:07:26;;;;;;;;;;;7.70;89.10;;;;;;4379318;32;27458;-84
2021/11/10 08:09:56;;;;;;;;;;;7.70;89.80;;;;;;4366155;32;35802;-84
2021/11/10 08:12:23;;;;;;;;;;;7.70;89.10;;;;;;4365352;32;46442;-84
2021/11/10 08:14:54;;;;;;;;;;;7.70;89.10;;;;;;4392717;32;20042;-84
2021/11/10 08:17:24;;;;;;;;;;;7.70;89.20;;;;;;4366854;32;20036;-85
2021/11/10 08:19:57;;;;;;;;;;;7.70;89.20;;;;;;4367082;32;20055;-85
2021/11/10 08:22:30;;;;;;;;;;;7.70;89.40;;;;;;4392891;32;20000;-85
2021/11/10 08:25:01;;;;;;;;;;;7.70;89.40;;;;;;4378469;32;20033;-84
2021/11/10 08:27:33;;;;;;;;;;;7.70;89.50;;;;;;4378335;32;20004;-84
2021/11/10 08:30:04;;;;;;;;;;;7.70;89.50;;;;;;4378298;32;39936;-84
2021/11/10 08:32:35;;;;;;;;;;;7.70;89.70;;;;;;4378000;32;34084;-85
2021/11/10 08:35:03;;;;;;;;;;;7.70;89.80;;;;;;4364897;32;45282;-85
2021/11/10 08:37:36;;;;;;;;;;;7.70;90.00;;;;;;4366083;32;20032;-85
2021/11/10 08:40:04;;;;;;;;;;;7.70;90.10;;;;;;4365236;32;37354;-85
2021/11/10 08:42:37;;;;;;;;;;;7.70;90.10;;;;;;4377394;32;35752;-85
2021/11/10 08:45:10;;;;;;;;;;;7.70;90.10;;;;;;4366317;32;20065;-85
2021/11/10 08:47:40;;;;;;;;;;;7.80;90.20;;;;;;4365780;32;19989;-85
2021/11/10 08:50:14;;;;;;;;;;;7.70;90.20;;;;;;4377964;32;27108;-85
2021/11/10 08:52:47;;;;;;;;;;;7.70;90.20;;;;;;4391132;32;42798;-85
2021/11/10 08:55:15;;;;;;;;;;;7.80;90.30;;;;;;4365457;32;27296;-85
2021/11/10 08:57:44;;;;;;;;;;;7.80;90.30;;;;;;4364896;32;35957;-84
2021/11/10 09:00:17;;;;;;;;;;;7.80;90.30;;;;;;4391655;32;28502;-80
2021/11/10 09:02:50;;;;;;;;;;;7.80;90.40;;;;;;4377670;32;37616;-81
2021/11/10 09:05:18;;;;;;;;;;;7.80;90.40;;;;;;4377013;32;42154;-81
2021/11/10 09:07:48;;;;;;;;;;;7.80;90.50;;;;;;4364510;32;43966;-81
2021/11/10 09:10:20;;;;;;;;;;;7.80;90.50;;;;;;4391446;32;28146;-88
2021/11/10 09:12:48;;;;;;;;;;;7.80;90.60;;;;;;4365597;32;23198;-82
2021/11/10 09:15:19;;;;;;;;;;;7.80;90.60;;;;;;4392034;32;20091;-82
2021/11/10 09:17:51;;;;;;;;;;;7.80;90.60;;;;;;4376986;32;45139;-81
2021/11/10 09:20:20;;;;;;;;;;;7.90;90.60;;;;;;4376842;32;35642;-81
2021/11/10 09:22:54;;;;;;;;;;;7.90;90.60;;;;;;4364975;32;40806;-81
2021/11/10 09:25:25;;;;;;;;;;;7.90;90.70;;;;;;4378034;32;20009;-81
2021/11/10 09:27:52;;;;;;;;;;;7.90;90.70;;;;;;4365704;32;20380;-82
2021/11/10 09:30:20;;;;;;;;;;;7.90;90.80;;;;;;4376996;32;27274;-81
2021/11/10 09:32:51;;;;;;;;;;;7.90;90.80;;;;;;4391105;32;20388;-82
2021/11/10 09:35:19;;;;;;;;;;;7.90;90.90;;;;;;4391072;32;29364;-83
2021/11/10 09:37:52;;;;;;;;;;;7.90;90.90;;;;;;4364541;32;37326;-82
2021/11/10 09:40:20;;;;;;;;;;;7.90;90.90;;;;;;4377577;32;32297;-82
2021/11/10 09:42:54;;;;;;;;;;;7.90;91.00;;;;;;4365209;32;20012;-82
2021/11/10 09:45:27;;;;;;;;;;;7.90;91.00;;;;;;4365336;32;20413;-81
2021/11/10 09:47:57;;;;;;;;;;;8.00;91.00;;;;;;4377024;32;38839;-82
2021/11/10 09:50:28;;;;;;;;;;;8.00;91.00;;;;;;4376263;32;45163;-82
2021/11/10 09:52:56;;;;;;;;;;;8.00;91.00;;;;;;4364217;32;43485;-81
2021/11/10 09:55:31;;;;;;;;;;;8.00;91.00;;;;;;4377716;32;20016;-81
2021/11/10 09:58:02;;;;;;;;;;;8.10;91.00;;;;;;4364769;32;29586;-82
2021/11/10 10:00:31;;;;;;;;;;;8.10;91.00;;;;;;4377370;32;28921;-83
2021/11/10 10:03:05;;;;;;;;;;;8.10;91.00;;;;;;4362716;32;20032;-83
2021/11/10 10:05:40;;;;;;;;;;;8.20;91.10;;;;;;4375462;32;20012;-82
2021/11/10 10:08:11;;;;;;;;;;;8.20;91.00;;;;;;4375392;32;20024;-83
2021/11/10 10:10:41;;;;;;;;;;;8.20;91.00;;;;;;4374590;32;31099;-87
2021/11/10 10:13:11;;;;;;;;;;;8.30;91.00;;;;;;4375170;32;32494;-87
2021/11/10 10:15:42;;;;;;;;;;;8.30;91.00;;;;;;4363034;32;20008;-90
2021/11/10 10:18:31;;;;;;;;;;;8.30;90.90;;;;;;4361929;32;30027;-80
2021/11/10 10:21:05;;;;;;;;;;;8.40;91.00;;;;;;4375251;32;37531;-80
2021/11/10 10:23:36;;;;;;;;;;;8.40;91.00;;;;;;4362642;32;20008;-79
2021/11/10 10:26:15;;;;;;;;;;;8.40;90.90;;;;;;4376239;32;20071;-79
2021/11/10 10:28:58;;;;;;;;;;;8.50;91.00;;;;;;4362372;32;20398;-81
2021/11/10 10:31:26;;;;;;;;;;;8.50;91.00;;;;;;4376299;32;20076;-79
2021/11/10 10:34:01;;;;;;;;;;;8.50;90.90;;;;;;4374196;32;20019;-84
2021/11/10 10:36:33;;;;;;;;;;;8.60;91.00;;;;;;4375385;32;20015;-84
2021/11/10 10:39:06;;;;;;;;;;;8.60;90.90;;;;;;4375214;32;20026;-84
2021/11/10 10:41:39;;;;;;;;;;;8.60;90.90;;;;;;4375182;32;20402;-84
2021/11/10 10:44:13;;;;;;;;;;;8.60;90.90;;;;;;4375184;32;20027;-83
2021/11/10 10:46:45;;;;;;;;;;;8.70;90.90;;;;;;4375113;32;20009;-83
2021/11/10 10:49:17;;;;;;;;;;;8.60;90.90;;;;;;4376918;32;20385;-84
2021/11/10 10:51:46;;;;;;;;;;;8.70;90.90;;;;;;4378349;32;20068;-84
2021/11/10 10:54:15;;;;;;;;;;;8.70;90.90;;;;;;4377870;32;20012;-83
2021/11/10 10:56:49;;;;;;;;;;;8.70;90.90;;;;;;4390049;32;20032;-84
2021/11/10 10:59:16;;;;;;;;;;;8.70;90.90;;;;;;4390405;32;20091;-84
2021/11/10 11:01:47;;;;;;;;;;;8.70;90.90;;;;;;4379350;32;20008;-84
2021/11/10 11:04:17;;;;;;;;;;;8.80;90.90;;;;;;4367967;32;20016;-84
2021/11/10 11:06:51;;;;;;;;;;;8.70;90.90;;;;;;4380176;32;20064;-84
2021/11/10 11:09:28;;;;;;;;;;;8.80;91.00;;;;;;4367586;32;20035;-84
2021/11/10 11:12:22;;;;;;;;;;;8.80;91.00;;;;;;4368001;32;20077;-85
2021/11/10 11:15:06;;;;;;;;;;;8.80;91.00;;;;;;4380196;32;20458;-85
2021/11/10 11:17:42;;;;;;;;;;;8.80;90.90;;;;;;4380369;32;20067;-84
2021/11/10 11:20:40;;;;;;;;;;;8.90;91.00;;;;;;4380475;32;20022;-84
2021/11/10 11:23:08;;;;;;;;;;;8.90;90.90;;;;;;4370096;32;22875;-83
2021/11/10 11:25:43;;;;;;;;;;;8.90;90.90;;;;;;4392490;32;37963;-83
2021/11/10 11:28:21;;;;;;;;;;;9.00;90.90;;;;;;4393695;32;20015;-85
2021/11/10 11:30:57;;;;;;;;;;;9.00;91.00;;;;;;4379178;32;31113;-84
2021/11/10 11:33:33;;;;;;;;;;;9.10;91.00;;;;;;4378611;32;37725;-87
2021/11/10 11:36:08;;;;;;;;;;;9.10;90.90;;;;;;4379703;32;20024;-87
2021/11/10 11:38:41;;;;;;;;;;;9.10;90.90;;;;;;4380088;32;20008;-85
2021/11/10 11:41:17;;;;;;;;;;;9.20;90.90;;;;;;4366716;32;34682;-84
2021/11/10 11:43:51;;;;;;;;;;;9.30;90.90;;;;;;4393458;32;20004;-86
2021/11/10 11:46:27;;;;;;;;;;;9.20;90.80;;;;;;4379729;32;20004;-84
2021/11/10 11:49:00;;;;;;;;;;;9.30;90.90;;;;;;4378986;32;33806;-88
2021/11/10 11:51:38;;;;;;;;;;;9.30;90.90;;;;;;4367397;32;20044;-86
2021/11/10 11:54:12;;;;;;;;;;;9.30;90.90;;;;;;4366590;32;21240;-87
2021/11/10 11:56:45;;;;;;;;;;;9.40;90.90;;;;;;4379480;32;20003;-88
2021/11/10 11:59:18;;;;;;;;;;;9.40;90.90;;;;;;4367125;32;20414;-87
2021/11/10 12:01:51;;;;;;;;;;;9.40;90.80;;;;;;4379544;32;20016;-86
2021/11/10 12:04:31;;;;;;;;;;;9.50;90.90;;;;;;4380156;32;20059;-87
2021/11/10 12:07:06;;;;;;;;;;;9.50;90.80;;;;;;4378909;32;19996;-87
2021/11/10 12:09:41;;;;;;;;;;;9.50;90.90;;;;;;4379698;32;20486;-85
2021/11/10 12:12:16;;;;;;;;;;;9.60;90.90;;;;;;4392994;32;20023;-87
2021/11/10 12:14:56;;;;;;;;;;;9.50;90.80;;;;;;4367074;32;20011;-87
2021/11/10 12:17:28;;;;;;;;;;;9.60;90.90;;;;;;4366770;32;19996;-87
2021/11/10 12:19:59;;;;;;;;;;;9.60;90.80;;;;;;4366239;32;20015;-88
2021/11/10 12:22:55;;;;;;;;;;;9.70;90.80;;;;;;4381939;32;20001;-88
2021/11/10 12:25:22;;;;;;;;;;;9.70;90.80;;;;;;4377990;32;35922;-88
2021/11/10 12:27:52;;;;;;;;;;;9.70;90.80;;;;;;4366320;32;20008;-89
2021/11/10 12:30:27;;;;;;;;;;;9.70;90.80;;;;;;4366073;32;20353;-87
2021/11/10 12:33:08;;;;;;;;;;;9.80;90.90;;;;;;4379446;32;20022;-88
2021/11/10 12:35:40;;;;;;;;;;;9.80;90.90;;;;;;4378457;32;20028;-85
2021/11/10 12:38:16;;;;;;;;;;;9.90;90.90;;;;;;4366824;32;20014;-87
2021/11/10 12:40:50;;;;;;;;;;;9.80;91.20;;;;;;4392885;32;20022;-88
2021/11/10 12:43:22;;;;;;;;;;;9.90;90.80;;;;;;4366280;32;20052;-87
2021/11/10 12:45:50;;;;;;;;;;;9.90;90.80;;;;;;4379268;32;20078;-88
2021/11/10 12:48:25;;;;;;;;;;;9.90;90.80;;;;;;4392993;32;20397;-87
2021/11/10 12:51:11;;;;;;;;;;;10.00;90.80;;;;;;4379499;32;20007;-88
2021/11/10 12:53:42;;;;;;;;;;;10.00;90.80;;;;;;4379300;32;20059;-88
2021/11/10 12:56:35;;;;;;;;;;;10.00;90.80;;;;;;4366854;32;20373;-88
2021/11/10 12:59:02;;;;;;;;;;;10.00;90.80;;;;;;4379159;32;20004;-89
2021/11/10 13:01:34;;;;;;;;;;;10.10;90.80;;;;;;4378970;32;20051;-88
2021/11/10 13:04:02;;;;;;;;;;;10.10;91.20;;;;;;4366241;32;20413;-88
2021/11/10 13:06:36;;;;;;;;;;;10.10;90.80;;;;;;4378389;32;20029;-88
2021/11/10 13:09:24;;;;;;;;;;;10.10;90.80;;;;;;4378866;32;20004;-88
2021/11/10 13:11:58;;;;;;;;;;;10.20;90.80;;;;;;4377722;32;20008;-88
2021/11/10 13:14:28;;;;;;;;;;;10.20;90.80;;;;;;4366155;32;19996;-89
2021/11/10 13:17:09;;;;;;;;;;;10.20;90.80;;;;;;4378602;32;20019;-88
2021/11/10 13:19:42;;;;;;;;;;;10.20;90.80;;;;;;4377798;32;38651;-87
2021/11/10 13:22:16;;;;;;;;;;;10.30;90.80;;;;;;4392196;32;20012;-89
2021/11/10 13:24:46;;;;;;;;;;;10.30;90.80;;;;;;4378556;32;20001;-88
2021/11/10 13:27:25;;;;;;;;;;;10.30;90.80;;;;;;4378493;32;20036;-88
2021/11/10 13:29:53;;;;;;;;;;;10.30;90.80;;;;;;4392368;32;20012;-88
2021/11/10 13:32:21;;;;;;;;;;;10.40;90.80;;;;;;4378252;32;20010;-88
2021/11/10 13:34:50;;;;;;;;;;;10.40;90.80;;;;;;4391754;32;20008;-88
2021/11/10 13:37:18;;;;;;;;;;;10.40;90.80;;;;;;4378489;32;20446;-88
2021/11/10 13:39:59;;;;;;;;;;;10.50;90.80;;;;;;4378319;32;20015;-88
2021/11/10 13:42:27;;;;;;;;;;;10.50;90.70;;;;;;4365803;32;20035;-88
2021/11/10 13:45:27;;;;;;;;;;;10.50;90.70;;;;;;4365629;32;20012;-88
2021/11/10 13:48:01;;;;;;;;;;;10.50;90.70;;;;;;4356987;32;20000;-88
2021/11/10 13:50:36;;;;;;;;;;;10.50;90.60;;;;;;4365863;32;20004;-88
2021/11/10 13:53:05;;;;;;;;;;;10.50;90.60;;;;;;4391008;32;32907;-90
2021/11/10 13:55:36;;;;;;;;;;;10.60;90.60;;;;;;4391638;32;20020;-88
2021/11/10 13:58:13;;;;;;;;;;;10.60;90.70;;;;;;4378588;32;20004;-87
2021/11/10 14:00:43;;;;;;;;;;;10.60;90.60;;;;;;4365712;32;20000;-88
2021/11/10 14:03:16;;;;;;;;;;;10.70;90.60;;;;;;4377225;32;20413;-88
2021/11/10 14:05:46;;;;;;;;;;;10.70;90.60;;;;;;4378313;32;20026;-88
2021/11/10 14:08:13;;;;;;;;;;;10.70;90.60;;;;;;4365222;32;20014;-88
2021/11/10 14:10:45;;;;;;;;;;;10.80;90.60;;;;;;4365775;32;20074;-88
2021/11/10 14:13:15;;;;;;;;;;;10.80;90.50;;;;;;4365155;32;19996;-88
2021/11/10 14:15:51;;;;;;;;;;;10.80;90.50;;;;;;4365571;32;20020;-88
2021/11/10 14:18:20;;;;;;;;;;;10.80;90.40;;;;;;4365594;32;20042;-89
2021/11/10 14:20:53;;;;;;;;;;;10.90;90.40;;;;;;4364609;32;27089;-85
2021/11/10 14:23:37;;;;;;;;;;;10.90;90.40;;;;;;4378130;32;34429;-87
2021/11/10 14:26:08;;;;;;;;;;;10.90;90.30;;;;;;4380941;32;20052;-88
2021/11/10 14:28:37;;;;;;;;;;;10.90;90.30;;;;;;4381381;32;20016;-87
2021/11/10 14:31:08;;;;;;;;;;;11.00;90.30;;;;;;4381433;32;20012;-87
2021/11/10 14:33:40;;;;;;;;;;;11.00;90.20;;;;;;4380413;32;20004;-88
2021/11/10 14:36:09;;;;;;;;;;;11.00;90.20;;;;;;4368141;32;19993;-87
2021/11/10 14:38:45;;;;;;;;;;;11.00;90.10;;;;;;4394554;32;20060;-87
2021/11/10 14:41:17;;;;;;;;;;;11.10;90.10;;;;;;4380896;32;20038;-87
2021/11/10 14:43:56;;;;;;;;;;;11.10;90.10;;;;;;4368659;32;20014;-87
2021/11/10 14:49:20;;;;;;;;;;;11.20;90.10;;;;;;4380558;32;20015;-87
2021/11/10 14:51:56;;;;;;;;;;;11.20;90.10;;;;;;4394207;32;20001;-87
2021/11/10 14:54:37;;;;;;;;;;;11.20;90.10;;;;;;4368290;32;20000;-87
2021/11/10 14:57:09;;;;;;;;;;;11.20;90.10;;;;;;4380819;32;20008;-87
2021/11/10 14:59:44;;;;;;;;;;;11.30;90.00;;;;;;4380720;32;20043;-88
2021/11/10 15:02:13;;;;;;;;;;;11.30;90.00;;;;;;4393996;32;20016;-88